createdAt,value
2019-04-10T00:02:23.803Z,40.83
2019-04-10T00:04:51.597Z,39.30
2019-04-10T00:07:19.818Z,40.57
2019-04-10T00:09:47.705Z,40.47
2019-04-10T00:12:15.718Z,39.73
2019-04-10T00:14:43.617Z,38.42
2019-04-10T00:17:11.175Z,38.10
2019-04-10T00:19:38.112Z,38.80
2019-04-10T00:22:06.300Z,37.73
2019-04-10T00:24:33.239Z,38.87
2019-04-10T00:27:00.333Z,39.50
2019-04-10T00:29:27.977Z,38.95
2019-04-10T00:31:55.033Z,40.27
2019-04-10T00:34:21.829Z,39.70
2019-04-10T00:36:49.188Z,38.97
2019-04-10T00:39:16.311Z,37.80
2019-04-10T00:41:44.235Z,38.17
2019-04-10T00:44:11.394Z,38.90
2019-04-10T00:46:38.423Z,37.50
2019-04-10T00:49:05.659Z,37.60
2019-04-10T00:51:33.144Z,36.83
2019-04-10T00:54:00.032Z,37.33
2019-04-10T00:56:27.193Z,36.67
2019-04-10T00:58:55.400Z,38.53
2019-04-10T01:01:23.591Z,38.27
2019-04-10T01:03:51.222Z,38.30
2019-04-10T01:06:19.805Z,38.80
2019-04-10T01:08:47.104Z,39.23
2019-04-10T01:11:15.008Z,38.60
2019-04-10T01:13:43.138Z,39.27
2019-04-10T01:16:11.208Z,38.73
2019-04-10T01:18:39.408Z,39.83
2019-04-10T01:21:06.666Z,39.83
2019-04-10T01:23:35.104Z,38.77
2019-04-10T01:26:03.063Z,39.10
2019-04-10T01:28:31.072Z,40.13
2019-04-10T01:30:59.102Z,39.37
2019-04-10T01:33:26.549Z,39.10
2019-04-10T01:35:54.336Z,39.07
2019-04-10T01:38:21.806Z,38.83
2019-04-10T01:40:48.925Z,39.23
2019-04-10T01:43:18.929Z,40.13
2019-04-10T01:45:45.893Z,39.57
2019-04-10T01:48:13.097Z,40.03
2019-04-10T01:50:40.021Z,39.27
2019-04-10T01:53:07.428Z,39.77
2019-04-10T01:55:35.739Z,39.00
2019-04-10T01:58:06.275Z,38.37
2019-04-10T02:00:33.710Z,38.33
2019-04-10T02:03:01.435Z,39.03
2019-04-10T02:05:28.353Z,37.43
2019-04-10T02:08:05.301Z,38.40
2019-04-10T02:10:24.465Z,38.33
2019-04-10T02:12:52.630Z,37.67
2019-04-10T02:15:19.732Z,38.07
2019-04-10T02:17:46.723Z,38.77
2019-04-10T02:20:14.614Z,38.83
2019-04-10T02:22:41.593Z,38.80
2019-04-10T02:25:09.159Z,38.03
2019-04-10T02:27:36.028Z,39.03
2019-04-10T02:30:05.114Z,38.20
2019-04-10T02:32:32.748Z,39.07
2019-04-10T02:35:01.102Z,37.97
2019-04-10T02:37:28.521Z,38.47
2019-04-10T02:39:59.919Z,37.67
2019-04-10T02:42:24.793Z,39.40
2019-04-10T02:44:52.214Z,37.90
2019-04-10T02:47:20.986Z,38.17
2019-04-10T02:49:49.243Z,37.67
2019-04-10T02:52:16.734Z,37.33
2019-04-10T02:54:43.755Z,38.20
2019-04-10T02:57:11.425Z,38.00
2019-04-10T02:59:39.793Z,38.63
2019-04-10T03:02:08.331Z,37.80
2019-04-10T03:04:37.243Z,37.80
2019-04-10T03:07:04.565Z,37.67
2019-04-10T03:09:47.594Z,37.50
2019-04-10T03:12:00.827Z,38.60
2019-04-10T03:14:28.496Z,39.20
2019-04-10T03:16:55.550Z,36.87
2019-04-10T03:19:22.525Z,36.50
2019-04-10T03:21:49.526Z,37.27
2019-04-10T03:24:16.421Z,37.27
2019-04-10T03:26:43.296Z,36.47
2019-04-10T03:29:10.236Z,37.73
2019-04-10T03:31:39.205Z,37.07
2019-04-10T03:34:26.076Z,35.87
2019-04-10T03:36:52.376Z,37.33
2019-04-10T03:39:19.169Z,37.57
2019-04-10T03:41:46.397Z,37.67
2019-04-10T03:44:14.522Z,37.03
2019-04-10T03:46:42.620Z,38.53
2019-04-10T03:49:09.738Z,37.90
2019-04-10T03:51:36.709Z,39.40
2019-04-10T03:54:04.789Z,40.33
2019-04-10T03:56:31.861Z,41.00
2019-04-10T03:58:59.908Z,39.23
2019-04-10T04:01:27.196Z,39.37
2019-04-10T04:03:55.171Z,36.57
2019-04-10T04:06:23.689Z,37.70
2019-04-10T04:09:02.491Z,38.43
2019-04-10T04:11:19.706Z,38.83
2019-04-10T04:13:46.622Z,38.17
2019-04-10T04:16:13.683Z,37.77
2019-04-10T04:18:41.306Z,38.23
2019-04-10T04:21:08.396Z,37.33
2019-04-10T04:23:36.104Z,37.50
2019-04-10T04:26:03.318Z,37.77
2019-04-10T04:28:30.299Z,39.30
2019-04-10T04:30:57.315Z,37.20
2019-04-10T04:33:24.375Z,36.83
2019-04-10T04:35:51.332Z,38.63
2019-04-10T04:38:18.253Z,39.40
2019-04-10T04:40:45.098Z,37.53
2019-04-10T04:43:12.485Z,38.00
2019-04-10T04:45:39.819Z,38.97
2019-04-10T04:48:07.764Z,38.60
2019-04-10T04:50:35.746Z,37.73
2019-04-10T04:53:03.201Z,39.60
2019-04-10T04:55:31.033Z,36.10
2019-04-10T04:57:59.842Z,37.17
2019-04-10T05:00:27.813Z,36.73
2019-04-10T05:02:55.781Z,37.23
2019-04-10T05:05:23.183Z,37.70
2019-04-10T05:07:59.387Z,37.70
2019-04-10T05:10:20.830Z,37.90
2019-04-10T05:12:49.397Z,37.07
2019-04-10T05:15:18.415Z,35.33
2019-04-10T05:17:46.867Z,35.43
2019-04-10T05:20:14.861Z,34.87
2019-04-10T05:22:42.035Z,33.30
2019-04-10T05:25:09.280Z,33.47
2019-04-10T05:27:37.151Z,34.87
2019-04-10T05:30:04.425Z,34.63
2019-04-10T05:32:32.859Z,34.10
2019-04-10T05:35:01.200Z,34.10
2019-04-10T05:37:29.688Z,32.50
2019-04-10T05:39:57.172Z,32.67
2019-04-10T05:42:24.794Z,31.40
2019-04-10T05:44:52.525Z,31.97
2019-04-10T05:47:19.837Z,30.55
2019-04-10T05:49:47.160Z,31.93
2019-04-10T05:52:14.749Z,31.17
2019-04-10T05:54:42.091Z,30.72
2019-04-10T05:57:10.378Z,29.42
2019-04-10T05:59:38.360Z,30.43
2019-04-10T06:02:06.797Z,30.90
2019-04-10T06:04:35.680Z,29.65
2019-04-10T06:07:03.175Z,29.87
2019-04-10T06:09:31.148Z,29.60
2019-04-10T06:11:58.646Z,30.25
2019-04-10T06:14:26.265Z,29.98
2019-04-10T06:16:53.785Z,30.30
2019-04-10T06:19:22.036Z,29.87
2019-04-10T06:21:50.317Z,30.70
2019-04-10T06:24:18.358Z,29.95
2019-04-10T06:26:45.927Z,30.68
2019-04-10T06:29:13.461Z,30.05
2019-04-10T06:31:40.954Z,29.57
2019-04-10T06:34:08.908Z,30.27
2019-04-10T06:36:37.539Z,29.37
2019-04-10T06:39:06.694Z,30.12
2019-04-10T06:41:34.901Z,30.05
2019-04-10T06:44:02.311Z,30.43
2019-04-10T06:46:30.682Z,29.18
2019-04-10T06:48:58.468Z,29.30
2019-04-10T06:51:25.594Z,29.50
2019-04-10T06:54:01.830Z,29.95
2019-04-10T06:56:21.872Z,28.90
2019-04-10T06:58:49.850Z,30.52
2019-04-10T07:01:20.975Z,28.42
2019-04-10T07:03:56.512Z,29.70
2019-04-10T07:06:19.862Z,27.98
2019-04-10T07:08:48.892Z,28.25
2019-04-10T07:11:13.614Z,28.92
2019-04-10T07:13:41.702Z,28.38
2019-04-10T07:16:11.274Z,29.70
2019-04-10T07:18:40.127Z,29.30
2019-04-10T07:21:08.648Z,30.27
2019-04-10T07:23:36.562Z,29.72
2019-04-10T07:26:04.201Z,28.95
2019-04-10T07:28:33.540Z,29.77
2019-04-10T07:31:05.280Z,30.88
2019-04-10T07:33:30.963Z,30.62
2019-04-10T07:35:59.221Z,28.87
2019-04-10T07:38:26.757Z,30.15
2019-04-10T07:40:54.737Z,29.70
2019-04-10T07:43:25.618Z,29.70
2019-04-10T07:45:51.274Z,29.92
2019-04-10T07:48:19.221Z,29.57
2019-04-10T07:50:48.283Z,30.35
2019-04-10T07:53:16.887Z,29.72
2019-04-10T07:55:57.511Z,29.10
2019-04-10T07:58:13.353Z,29.40
2019-04-10T08:00:40.808Z,29.52
2019-04-10T08:03:08.314Z,29.57
2019-04-10T08:05:35.491Z,28.95
2019-04-10T08:08:03.337Z,30.37
2019-04-10T08:10:30.691Z,29.35
2019-04-10T08:12:58.208Z,29.12
2019-04-10T08:15:25.227Z,29.92
2019-04-10T08:17:52.367Z,29.05
2019-04-10T08:20:19.854Z,29.60
2019-04-10T08:22:47.125Z,28.45
2019-04-10T08:25:14.358Z,28.65
2019-04-10T08:27:41.885Z,27.82
2019-04-10T08:30:11.091Z,29.02
2019-04-10T08:32:51.719Z,29.67
2019-04-10T08:35:09.098Z,29.07
2019-04-10T08:37:36.946Z,29.27
2019-04-10T08:40:07.335Z,28.77
2019-04-10T08:42:35.186Z,28.70
2019-04-10T08:45:03.627Z,30.00
2019-04-10T08:47:31.439Z,29.23
2019-04-10T08:49:59.243Z,29.15
2019-04-10T08:52:27.092Z,30.02
2019-04-10T08:54:55.008Z,29.57
2019-04-10T08:57:24.350Z,28.67
2019-04-10T08:59:52.682Z,29.85
2019-04-10T09:02:22.728Z,29.42
2019-04-10T09:04:57.421Z,30.77
2019-04-10T09:07:26.797Z,29.87
2019-04-10T09:09:56.188Z,30.45
2019-04-10T09:12:28.203Z,29.75
2019-04-10T09:14:57.237Z,28.83
2019-04-10T09:17:27.096Z,29.15
2019-04-10T09:19:58.270Z,29.67
2019-04-10T09:22:27.545Z,29.05
2019-04-10T09:24:56.770Z,29.70
2019-04-10T09:27:27.246Z,30.72
2019-04-10T09:29:57.230Z,29.48
2019-04-10T09:32:27.050Z,29.70
2019-04-10T09:34:54.147Z,28.75
2019-04-10T09:37:24.092Z,31.62
2019-04-10T09:39:53.410Z,30.27
2019-04-10T09:42:21.442Z,31.35
2019-04-10T09:44:48.600Z,29.75
2019-04-10T09:47:16.434Z,30.37
2019-04-10T09:49:46.264Z,29.57
2019-04-10T09:52:12.476Z,30.48
2019-04-10T09:54:40.432Z,31.27
2019-04-10T09:57:07.508Z,30.85
2019-04-10T09:59:36.981Z,31.73
2019-04-10T10:02:03.654Z,32.10
2019-04-10T10:04:31.263Z,31.62
2019-04-10T10:06:59.743Z,30.88
2019-04-10T10:10:15.063Z,30.88
2019-04-10T10:12:59.683Z,30.23
2019-04-10T10:15:27.415Z,31.50
2019-04-10T10:17:55.084Z,30.12
2019-04-10T10:20:22.244Z,29.80
2019-04-10T10:22:49.512Z,27.73
2019-04-10T10:25:17.380Z,29.18
2019-04-10T10:27:44.777Z,28.98
2019-04-10T10:30:13.465Z,29.42
2019-04-10T10:32:42.098Z,29.27
2019-04-10T10:35:11.288Z,28.15
2019-04-10T10:37:39.110Z,29.35
2019-04-10T10:40:10.096Z,28.60
2019-04-10T10:42:39.634Z,28.12
2019-04-10T10:45:10.529Z,27.90
2019-04-10T10:47:40.727Z,27.10
2019-04-10T10:50:10.279Z,28.17
2019-04-10T10:52:40.235Z,27.40
2019-04-10T10:55:09.863Z,26.50
2019-04-10T10:57:40.121Z,26.77
2019-04-10T11:00:13.140Z,25.23
2019-04-10T11:02:43.521Z,26.20
2019-04-10T11:05:12.768Z,25.75
2019-04-10T11:10:04.708Z,26.55
2019-04-10T11:12:34.012Z,26.73
2019-04-10T11:18:48.533Z,27.40
2019-04-10T11:21:18.980Z,28.02
2019-04-10T11:24:09.091Z,28.92
2019-04-10T11:26:36.190Z,27.93
2019-04-10T11:29:05.499Z,26.45
2019-04-10T11:31:45.794Z,24.27
2019-04-10T11:34:34.423Z,24.00
2019-04-10T11:37:23.119Z,24.45
2019-04-10T11:40:16.355Z,23.92
2019-04-10T11:43:02.811Z,23.70
2019-04-10T11:45:45.626Z,24.77
2019-04-10T11:48:16.966Z,23.90
2019-04-10T11:54:26.580Z,24.87
2019-04-10T11:57:30.783Z,25.82
2019-04-10T12:00:00.796Z,26.15
2019-04-10T12:02:32.072Z,25.60
2019-04-10T12:05:03.342Z,26.70
2019-04-10T12:07:55.010Z,25.75
2019-04-10T12:12:25.812Z,24.45
2019-04-10T12:14:54.126Z,25.35
2019-04-10T12:17:22.115Z,22.62
2019-04-10T12:19:49.246Z,22.77
2019-04-10T12:22:16.770Z,22.77
2019-04-10T12:24:44.494Z,22.73
2019-04-10T12:27:33.502Z,22.60
2019-04-10T12:30:02.814Z,22.62
2019-04-10T12:32:33.108Z,23.92
2019-04-10T12:35:00.334Z,22.77
2019-04-10T12:37:27.803Z,21.80
2019-04-10T12:39:58.686Z,21.68
2019-04-10T12:42:25.841Z,22.80
2019-04-10T12:44:53.014Z,23.70
2019-04-10T12:47:20.388Z,23.45
2019-04-10T12:49:49.637Z,23.42
2019-04-10T12:52:18.500Z,22.82
2019-04-10T12:54:47.031Z,24.18
2019-04-10T12:57:26.991Z,23.02
2019-04-10T12:59:59.461Z,22.95
2019-04-10T13:02:22.665Z,20.85
2019-04-10T13:04:50.544Z,19.95
2019-04-10T13:07:21.203Z,20.82
2019-04-10T13:09:54.472Z,20.75
2019-04-10T13:12:29.316Z,21.07
2019-04-10T13:14:57.156Z,21.95
2019-04-10T13:17:25.551Z,20.15
2019-04-10T13:19:55.597Z,20.15
2019-04-10T13:22:24.981Z,22.07
2019-04-10T13:24:52.784Z,20.95
2019-04-10T13:27:23.057Z,20.02
2019-04-10T13:29:52.211Z,19.77
2019-04-10T13:32:21.203Z,21.77
2019-04-10T13:34:59.752Z,21.45
2019-04-10T13:37:31.691Z,21.62
2019-04-10T13:39:59.658Z,21.33
2019-04-10T13:42:27.270Z,22.73
2019-04-10T13:44:55.756Z,21.77
2019-04-10T13:47:23.692Z,21.00
2019-04-10T13:49:51.218Z,22.42
2019-04-10T13:52:18.440Z,21.55
2019-04-10T13:54:45.558Z,21.15
2019-04-10T13:57:12.749Z,22.82
2019-04-10T13:59:41.398Z,22.42
2019-04-10T14:02:15.341Z,22.48
2019-04-10T14:04:42.965Z,21.85
2019-04-10T14:07:11.542Z,21.48
2019-04-10T14:09:43.994Z,21.77
2019-04-10T14:12:07.977Z,23.20
2019-04-10T14:14:37.522Z,22.02
2019-04-10T14:17:06.991Z,23.05
2019-04-10T14:19:34.452Z,23.42
2019-04-10T14:22:01.843Z,22.80
2019-04-10T14:24:39.244Z,22.02
2019-04-10T14:27:05.696Z,21.57
2019-04-10T14:29:33.030Z,21.57
2019-04-10T14:32:03.026Z,22.52
2019-04-10T14:34:30.437Z,23.00
2019-04-10T14:36:57.875Z,22.15
2019-04-10T14:39:24.799Z,22.25
2019-04-10T14:41:51.836Z,21.70
2019-04-10T14:44:20.668Z,21.73
2019-04-10T14:46:47.691Z,22.50
2019-04-10T14:49:14.693Z,23.30
2019-04-10T14:51:41.652Z,23.15
2019-04-10T14:54:08.995Z,23.00
2019-04-10T14:56:36.070Z,22.80
2019-04-10T14:59:03.922Z,26.80
2019-04-10T15:01:31.264Z,24.37
2019-04-10T15:03:58.314Z,22.67
2019-04-10T15:06:25.752Z,22.40
2019-04-10T15:08:52.977Z,22.65
2019-04-10T15:11:20.070Z,22.95
2019-04-10T15:13:47.093Z,23.22
2019-04-10T15:16:14.778Z,22.52
2019-04-10T15:18:43.860Z,23.27
2019-04-10T15:21:10.971Z,21.95
2019-04-10T15:23:39.143Z,21.55
2019-04-10T15:26:07.950Z,20.10
2019-04-10T15:28:36.034Z,20.30
2019-04-10T15:31:03.439Z,20.77
2019-04-10T15:33:31.690Z,20.92
2019-04-10T15:35:59.682Z,21.05
2019-04-10T15:38:27.160Z,21.37
2019-04-10T15:40:55.261Z,21.75
2019-04-10T15:43:23.908Z,21.10
2019-04-10T15:45:52.536Z,20.45
2019-04-10T15:48:20.917Z,20.90
2019-04-10T15:50:48.150Z,19.65
2019-04-10T15:53:15.945Z,19.77
2019-04-10T15:55:42.840Z,20.27
2019-04-10T15:58:10.814Z,19.75
2019-04-10T16:00:37.816Z,20.25
2019-04-10T16:03:05.031Z,20.72
2019-04-10T16:05:32.127Z,19.57
2019-04-10T16:07:59.267Z,20.80
2019-04-10T16:10:41.248Z,20.25
2019-04-10T16:13:17.539Z,19.17
2019-04-10T16:15:45.020Z,20.25
2019-04-10T16:18:15.628Z,19.70
2019-04-10T16:20:43.488Z,19.32
2019-04-10T16:23:19.704Z,19.82
2019-04-10T16:25:50.800Z,19.98
2019-04-10T16:28:18.179Z,18.30
2019-04-10T16:30:46.499Z,20.20
2019-04-10T16:33:14.724Z,19.00
2019-04-10T16:35:42.103Z,18.10
2019-04-10T16:38:09.125Z,18.35
2019-04-10T16:40:36.279Z,20.02
2019-04-10T16:43:04.930Z,19.37
2019-04-10T16:45:32.893Z,18.90
2019-04-10T16:48:00.790Z,18.10
2019-04-10T16:50:27.919Z,18.17
2019-04-10T16:52:55.632Z,17.95
2019-04-10T16:55:22.867Z,17.45
2019-04-10T16:57:50.076Z,17.23
2019-04-10T17:00:19.436Z,17.42
2019-04-10T17:02:46.523Z,16.80
2019-04-10T17:05:14.514Z,17.15
2019-04-10T17:07:41.441Z,16.02
2019-04-10T17:10:18.419Z,16.45
2019-04-10T17:12:42.192Z,16.23
2019-04-10T17:15:10.320Z,15.38
2019-04-10T17:17:38.615Z,16.62
2019-04-10T17:20:06.990Z,15.15
2019-04-10T17:22:41.840Z,15.83
2019-04-10T17:25:04.110Z,15.38
2019-04-10T17:27:32.003Z,16.67
2019-04-10T17:35:23.325Z,16.62
2019-04-10T17:37:50.714Z,17.02
2019-04-10T17:42:46.355Z,15.88
2019-04-10T17:45:14.585Z,16.35
2019-04-10T17:47:42.086Z,15.75
2019-04-10T17:50:11.937Z,16.07
2019-04-10T17:52:39.222Z,16.15
2019-04-10T17:55:07.337Z,17.02
2019-04-10T17:57:38.920Z,19.98
2019-04-10T18:00:09.020Z,16.85
2019-04-10T18:02:36.755Z,16.82
2019-04-10T18:05:04.546Z,15.25
2019-04-10T18:07:32.281Z,15.78
2019-04-10T18:10:00.195Z,14.38
2019-04-10T18:12:27.931Z,14.73
2019-04-10T18:14:55.986Z,14.90
2019-04-10T18:17:22.890Z,14.58
2019-04-10T18:19:50.292Z,14.50
2019-04-10T18:22:18.505Z,14.95
2019-04-10T18:24:45.734Z,14.70
2019-04-10T18:27:12.822Z,16.00
2019-04-10T18:29:39.708Z,14.83
2019-04-10T18:32:07.600Z,15.23
2019-04-10T18:34:35.444Z,14.85
2019-04-10T18:37:04.414Z,15.55
2019-04-10T18:39:32.406Z,15.00
2019-04-10T18:42:03.523Z,14.58
2019-04-10T18:44:31.168Z,15.08
2019-04-10T18:46:58.549Z,15.18
2019-04-10T18:49:25.695Z,14.80
2019-04-10T18:51:52.698Z,14.25
2019-04-10T18:54:19.601Z,14.93
2019-04-10T18:56:46.588Z,15.32
2019-04-10T18:59:18.513Z,15.15
2019-04-10T19:01:53.964Z,14.28
2019-04-10T19:04:49.887Z,14.53
2019-04-10T19:07:17.465Z,14.10
2019-04-10T19:09:44.789Z,13.83
2019-04-10T19:12:12.762Z,14.10
2019-04-10T19:14:42.457Z,13.62
2019-04-10T19:17:10.977Z,13.73
2019-04-10T19:19:40.118Z,13.62
2019-04-10T19:22:08.095Z,14.03
2019-04-10T19:24:36.644Z,13.32
2019-04-10T19:27:04.153Z,13.20
2019-04-10T19:29:31.800Z,12.98
2019-04-10T19:32:02.199Z,12.75
2019-04-10T19:34:29.801Z,12.98
2019-04-10T19:36:56.584Z,12.23
2019-04-10T19:39:24.436Z,12.27
2019-04-10T19:41:53.848Z,12.57
2019-04-10T19:44:21.152Z,12.13
2019-04-10T19:46:48.392Z,12.00
2019-04-10T19:49:16.287Z,11.60
2019-04-10T19:51:43.743Z,12.17
2019-04-10T19:54:11.022Z,12.60
2019-04-10T19:56:37.985Z,12.00
2019-04-10T19:59:06.211Z,11.30
2019-04-10T20:01:34.063Z,11.03
2019-04-10T20:04:02.058Z,11.63
2019-04-10T20:06:30.136Z,11.33
2019-04-10T20:08:57.860Z,11.40
2019-04-10T20:11:33.958Z,10.77
2019-04-10T20:13:54.678Z,11.57
2019-04-10T20:16:22.805Z,10.90
2019-04-10T20:18:50.737Z,10.60
2019-04-10T20:21:18.269Z,11.40
2019-04-10T20:23:45.975Z,11.47
2019-04-10T20:26:13.290Z,11.00
2019-04-10T20:28:40.781Z,10.93
2019-04-10T20:31:12.822Z,11.27
2019-04-10T20:33:40.987Z,10.83
2019-04-10T20:36:08.911Z,10.57
2019-04-10T20:38:36.627Z,10.40
2019-04-10T20:41:04.618Z,10.30
2019-04-10T20:43:32.680Z,10.60
2019-04-10T20:46:00.317Z,10.60
2019-04-10T20:48:27.204Z,10.80
2019-04-10T20:50:54.374Z,11.57
2019-04-10T20:53:22.102Z,11.17
2019-04-10T20:55:50.925Z,11.17
2019-04-10T20:58:19.102Z,11.20
2019-04-10T21:00:47.305Z,10.63
2019-04-10T21:03:15.449Z,10.90
2019-04-10T21:05:42.498Z,10.47
2019-04-10T21:08:09.585Z,9.90
2019-04-10T21:10:36.433Z,10.97
2019-04-10T21:13:04.394Z,10.67
2019-04-10T21:15:31.816Z,11.30
2019-04-10T21:17:59.185Z,10.37
2019-04-10T21:20:27.194Z,10.23
2019-04-10T21:22:54.093Z,10.03
2019-04-10T21:25:21.181Z,10.60
2019-04-10T21:27:50.433Z,9.97
2019-04-10T21:30:36.061Z,13.50
2019-04-10T21:33:20.484Z,12.13
2019-04-10T21:35:47.761Z,10.37
2019-04-10T21:38:15.143Z,9.77
2019-04-10T21:40:43.326Z,10.23
2019-04-10T21:43:10.341Z,10.43
2019-04-10T21:45:37.746Z,9.83
2019-04-10T21:48:04.755Z,10.40
2019-04-10T21:50:31.768Z,9.23
2019-04-10T21:52:59.551Z,10.00
2019-04-10T21:55:26.934Z,9.70
2019-04-10T21:57:55.325Z,9.63
2019-04-10T22:00:35.267Z,9.13
2019-04-10T22:03:02.872Z,9.30
2019-04-10T22:05:31.003Z,9.20
2019-04-10T22:08:09.574Z,9.90
2019-04-10T22:10:41.914Z,9.50
2019-04-10T22:13:09.265Z,8.97
2019-04-10T22:15:39.521Z,9.83
2019-04-10T22:18:07.276Z,9.13
2019-04-10T22:20:34.471Z,9.40
2019-04-10T22:23:01.848Z,9.10
2019-04-10T22:25:29.831Z,9.33
2019-04-10T22:27:58.295Z,9.30
2019-04-10T22:30:25.589Z,9.17
2019-04-10T22:32:53.451Z,9.00
2019-04-10T22:35:21.552Z,8.90
2019-04-10T22:37:49.013Z,8.83
2019-04-10T22:40:17.269Z,8.87
2019-04-10T22:42:46.707Z,8.87
2019-04-10T22:45:25.730Z,8.80
2019-04-10T22:47:52.741Z,9.00
2019-04-10T22:50:20.347Z,9.27
2019-04-10T22:52:48.465Z,8.67
2019-04-10T22:55:15.760Z,8.60
2019-04-10T22:57:42.662Z,8.93
2019-04-10T23:00:13.836Z,8.30
2019-04-10T23:02:40.930Z,8.60
2019-04-10T23:05:08.083Z,9.00
2019-04-10T23:07:35.677Z,8.37
2019-04-10T23:10:04.454Z,9.23
2019-04-10T23:12:32.037Z,9.20
2019-04-10T23:14:58.984Z,8.40
2019-04-10T23:17:26.507Z,9.03
2019-04-10T23:19:54.249Z,9.30
2019-04-10T23:22:21.153Z,9.30
2019-04-10T23:24:48.013Z,8.27
2019-04-10T23:27:14.792Z,8.33
2019-04-10T23:29:41.705Z,8.47
2019-04-10T23:32:09.001Z,9.20
2019-04-10T23:34:36.782Z,9.10
2019-04-10T23:37:04.683Z,8.97
2019-04-10T23:39:32.393Z,8.83
2019-04-10T23:41:59.315Z,9.30
2019-04-10T23:44:27.006Z,9.00
2019-04-10T23:46:54.044Z,8.30
2019-04-10T23:49:21.514Z,8.83
2019-04-10T23:51:49.566Z,9.33
2019-04-10T23:54:17.249Z,9.37
2019-04-10T23:56:46.599Z,8.93
2019-04-10T23:59:12.950Z,9.70
